Flight Track Log - Related Links

Times and Time Zones

All times are in EDT time to prevent confusion due to time zone crossing. See the EJA122 flight status page for this flight to view local times or setup timezone preferences in your user account.


Time Position Orientation Groundspeed Altitude Reporting Facility
EDT Latitude Longitude Course Direction KTS MPH feet Rate Location/Type
Sat 02:21:06 AM 33.1167 -117.3000 268° West 150 173 1,400  Level Southern California TRACON
Sat 02:23:12 AM 33.1131 -117.4400 268° West 202 232 7,100 2,599 Climbing Los Angeles Center
Sat 02:24:13 AM 33.0992 -117.5314 260° West 247 284 9,500 2,016 Climbing Los Angeles Center
Sat 02:25:14 AM 33.1200 -117.6219 285° West 284 327 11,200 1,426 Climbing Los Angeles Center
Sat 02:26:15 AM 33.1686 -117.7203 301° West 329 379 12,400 1,525 Climbing Los Angeles Center
Sat 02:27:16 AM 33.2586 -117.7750 333° Northwest 355 409 14,300 1,918 Climbing Los Angeles Center
Sat 02:28:17 AM 33.3469 -117.8339 331° Northwest 359 413 16,300 1,967 Climbing Los Angeles Center
Sat 02:29:18 AM 33.4339 -117.8944 330° Northwest 362 417 18,300 1,672 Climbing Los Angeles Center
Sat 02:30:19 AM 33.5200 -117.9539 330° Northwest 360 414 19,700 1,119 Climbing Los Angeles Center
Sat 02:31:32 AM 33.6083 -118.0150 330° Northwest 365 420 20,800 1,209 Climbing Los Angeles Center
Sat 02:32:33 AM 33.7356 -118.1031 330° Northwest 379 436 22,400 1,279 Climbing Los Angeles Center
Sat 02:33:34 AM 33.8267 -118.1658 330° Northwest 383 441 23,400 984 Climbing Los Angeles Center
Sat 02:34:35 AM 33.9178 -118.2311 329° Northwest 388 447 24,400 942 Climbing Los Angeles Center
Sat 02:35:35 AM 34.0100 -118.2961 330° Northwest 389 448 25,300 793 Climbing Los Angeles Center
Sat 02:36:36 AM 34.1025 -118.3619 329° Northwest 389 448 26,000 738 Climbing Los Angeles Center
Sat 02:37:37 AM 34.1964 -118.4286 330° Northwest 392 451 26,800 689 Climbing Los Angeles Center
Sat 02:38:38 AM 34.2919 -118.4969 329° Northwest 398 458 27,400 689 Climbing Los Angeles Center
Sat 02:39:39 AM 34.3875 -118.5642 330° Northwest 399 459 28,200 787 Climbing Los Angeles Center
Sat 02:40:40 AM 34.5039 -118.6469 330° Northwest 406 467 29,000 744 Climbing Los Angeles Center
Sat 02:41:40 AM 34.6025 -118.7178 329° Northwest 410 472 29,700 694 Climbing Los Angeles Center
Sat 02:42:41 AM 34.7025 -118.7897 329° Northwest 417 480 30,400 639 Climbing Los Angeles Center
Sat 02:43:42 AM 34.8042 -118.8606 330° Northwest 422 486 31,000 590 Climbing Los Angeles Center
Sat 02:44:43 AM 34.8964 -118.9522 321° Northwest 427 491 31,600 541 Climbing Los Angeles Center
Sat 02:45:44 AM 34.9803 -119.0325 322° Northwest 428 493 32,100 545 Climbing Los Angeles Center
Sat 02:46:44 AM 35.0750 -119.1239 322° Northwest 433 498 32,700 545 Climbing Los Angeles Center
Sat 02:47:45 AM 35.1492 -119.1975 321° Northwest 432 497 33,200 639 Climbing Los Angeles Center
Sat 02:48:46 AM 35.2803 -119.3242 322° Northwest 428 493 34,000 397 Climbing Los Angeles Center
Sat 02:49:46 AM 35.3756 -119.4194 321° Northwest 436 502 34,000  Level Los Angeles Center
Sat 02:50:47 AM 35.4747 -119.5175 321° Northwest 454 522 34,000  Level Los Angeles Center
Sat 02:51:48 AM 35.5744 -119.6167 321° Northwest 460 529 34,000  Level Los Angeles Center
Sat 02:52:55 AM 35.6711 -119.7122 321° Northwest 466 536 34,000  Level Oakland Center
Sat 02:53:56 AM 35.7931 -119.8350 321° Northwest 473 544 34,000  Level Oakland Center
Sat 02:54:56 AM 35.8853 -119.9433 316° Northwest 470 541 34,000  Level Oakland Center
Sat 02:55:56 AM 35.9775 -120.0528 316° Northwest 465 535 34,000  Level Oakland Center
Sat 02:56:57 AM 36.0708 -120.1658 316° Northwest 471 542 34,000  Level Oakland Center
Sat 02:57:57 AM 36.1631 -120.2747 316° Northwest 466 536 34,000  Level Oakland Center
Sat 02:58:58 AM 36.2556 -120.3864 316° Northwest 466 536 34,000  Level Oakland Center
Sat 02:59:58 AM 36.3492 -120.4986 316° Northwest 471 542 34,000  Level Oakland Center
Sat 03:00:59 AM 36.4419 -120.6111 316° Northwest 469 540 34,000  Level Oakland Center
Sat 03:01:59 AM 36.5344 -120.7231 316° Northwest 467 537 34,000  Level Oakland Center
Sat 03:02:59 AM 36.6261 -120.8364 315° West 468 539 34,000  Level Oakland Center
Sat 03:04:00 AM 36.7192 -120.9483 316° Northwest 468 539 34,000 -198 Level Oakland Center
Sat 03:05:00 AM 36.8108 -121.0617 315° West 466 536 33,600 -1,190 Descending Oakland Center
Sat 03:06:01 AM 36.9092 -121.1886 314° West 463 533 31,600 -1,785 Descending Oakland Center
Sat 03:07:01 AM 36.9992 -121.3028 315° West 462 532 30,000 -1,700 Descending Oakland Center
Sat 03:08:01 AM 37.0892 -121.4144 315° West 465 535 28,200 -1,884 Descending Oakland Center
Sat 03:09:02 AM 37.1789 -121.5275 315° West 460 529 26,200 -2,033 Descending Oakland Center
Sat 03:10:02 AM 37.2689 -121.6406 315° West 458 527 24,100 -2,200 Descending Oakland Center
Sat 03:11:02 AM 37.3564 -121.7517 315° West 447 514 21,800 -2,509 Descending Oakland Center
Sat 03:11:52 AM 37.4333 -121.8500 315° West 425 489 19,500 -2,836 Descending Northern Cal TRACON
Sat 03:12:52 AM 37.5167 -121.9500 316° Northwest 418 481 16,600 -1,950 Descending Northern Cal TRACON
Sat 03:13:52 AM 37.6000 -122.0500 316° Northwest 401 461 15,600 -1,800 Descending Northern Cal TRACON
Sat 03:14:52 AM 37.6667 -122.1500 310° West 365 420 13,000 -2,844 Descending Northern Cal TRACON
Sat 03:17:04 AM 37.8125 -122.2864 324° Northwest 296 341 6,500 -2,767 Descending Oakland Center
Sat 03:18:05 AM 37.8772 -122.3350 329° Northwest 281 323 4,100 -1,240 Descending Oakland Center
Sat 03:19:05 AM 37.9392 -122.3808 330° Northwest 266 306 4,000 -750 Descending Oakland Center
Sat 03:20:05 AM 38.0036 -122.3778 North 252 290 2,600 -793 Descending Oakland Center
Sat 03:21:06 AM 38.0561 -122.3558 18° North 213 245 2,400 -397 Descending Oakland Center
Sat 03:22:06 AM 38.0981 -122.3381 18° North 172 198 1,800 -350 Descending Oakland Center
Sat 03:23:06 AM 38.1342 -122.3200 21° North 146 168 1,700 -595 Descending Oakland Center
Sat 03:24:07 AM 38.1714 -122.3019 21° North 144 166 600 9,074 Descending Oakland Center
Sat 03:25:07 AM 38.2122 -122.2836 19° North 150 173 20,000 19,400 Climbing Oakland Center
Sat 03:27:00 AM 38.2132 -122.2807 31° Northeast  Level Estimated
Sat 03:34:00 AM 38.2132 -122.2807 31° Northeast  Level Estimated

Login

Don't have an account? Register now (free) for customized features, flight alerts, and more!